Archival Weather

Snohomish County (Paine Fld)

Everett, Washington (KPAE)

Report from: Saturday, November 18, 2023 6:53 AM PST
Current time: Friday, June 21, 2024 1:56 AM PDT

Current weather – Weather history – Daily summaries
Weather forecast

Temperature3.3°C (37.9°F)
Dew point-0.6°C (30.9°F)
Winds Calm
Visibility10 mi. (16.1 km)
Clouds Sky clear
Altimeter29.79 in.Hg (1009 mB)
Relative humidity76 %
Density altitude-1,185 ft. (-361 m)
Sea-level pressure100.9 kPa (1009 mB, 29.80 in.Hg)
Remarks Automated weather observing station with precipitation discriminator
Pressure falling more slowly
Flight conditions Visual Meteorological Conditions
Raw dataKPAE 181453Z 00000KT 10SM CLR 03/M01 A2979 RMK AO2 SLP090 T00331006 56016
An error has occurred. This application may no longer respond until reloaded. Reload 🗙